createdAt,value
2022-09-23T00:02:19.564Z,12.44
2022-09-23T00:04:49.324Z,12.48
2022-09-23T00:07:19.111Z,12.53
2022-09-23T00:09:49.590Z,12.37
2022-09-23T00:12:19.292Z,12.33
2022-09-23T00:14:49.097Z,12.42
2022-09-23T00:17:18.881Z,12.38
2022-09-23T00:19:48.715Z,12.36
2022-09-23T00:22:18.562Z,12.30
2022-09-23T00:24:48.370Z,12.26
2022-09-23T00:27:19.878Z,12.26
2022-09-23T00:29:49.996Z,12.27
2022-09-23T00:32:19.746Z,12.10
2022-09-23T00:34:49.863Z,12.18
2022-09-23T00:37:20.160Z,12.07
2022-09-23T00:39:49.989Z,12.03
2022-09-23T00:42:21.664Z,12.00
2022-09-23T00:44:53.533Z,12.13
2022-09-23T00:47:57.844Z,12.14
2022-09-23T00:50:36.208Z,12.06
2022-09-23T00:53:09.783Z,11.92
2022-09-23T00:55:42.956Z,12.03
2022-09-23T00:58:18.732Z,11.94
2022-09-23T01:00:49.347Z,11.99
2022-09-23T01:03:19.621Z,11.87
2022-09-23T01:05:49.734Z,11.72
2022-09-23T01:08:20.921Z,11.66
2022-09-23T01:11:06.082Z,11.79
2022-09-23T01:13:40.544Z,11.77
2022-09-23T01:16:13.849Z,11.76
2022-09-23T01:19:01.593Z,11.76
2022-09-23T01:21:43.215Z,11.76
2022-09-23T01:24:43.871Z,11.57
2022-09-23T01:27:34.350Z,11.59
2022-09-23T01:33:12.354Z,11.77
2022-09-23T01:35:50.836Z,11.64
2022-09-23T01:38:23.643Z,11.76
2022-09-23T01:41:08.777Z,11.70
2022-09-23T01:43:56.143Z,11.71
2022-09-23T01:46:34.530Z,11.66
2022-09-23T01:49:09.735Z,11.62
2022-09-23T01:51:42.400Z,11.65
2022-09-23T01:54:31.611Z,11.68
2022-09-23T01:57:04.377Z,11.77
2022-09-23T01:59:39.819Z,11.56
2022-09-23T02:02:23.541Z,11.54
2022-09-23T02:05:05.040Z,11.55
2022-09-23T02:07:46.238Z,11.66
2022-09-23T02:10:25.440Z,11.50
2022-09-23T02:12:58.175Z,11.58
2022-09-23T02:15:33.831Z,11.58
2022-09-23T02:18:06.329Z,11.50
2022-09-23T02:20:39.775Z,11.56
2022-09-23T02:23:13.026Z,11.66
2022-09-23T02:25:48.966Z,11.59
2022-09-23T02:28:19.236Z,11.59
2022-09-23T02:30:51.985Z,11.62
2022-09-23T02:33:27.616Z,11.64
2022-09-23T02:36:01.127Z,11.66
2022-09-23T02:38:45.535Z,11.65
2022-09-23T02:41:20.859Z,11.69
2022-09-23T02:44:11.092Z,11.64
2022-09-23T02:46:43.138Z,11.65
2022-09-23T02:49:27.660Z,11.59
2022-09-23T02:52:00.070Z,11.55
2022-09-23T02:54:30.431Z,11.51
2022-09-23T02:57:03.037Z,11.70
2022-09-23T02:59:34.216Z,11.58
2022-09-23T03:02:26.480Z,11.51
2022-09-23T03:05:24.359Z,11.55
2022-09-23T03:08:22.475Z,11.50
2022-09-23T03:11:04.161Z,11.50
2022-09-23T03:13:54.837Z,11.56
2022-09-23T03:16:33.129Z,11.49
2022-09-23T03:19:25.157Z,11.36
2022-09-23T03:22:03.527Z,11.33
2022-09-23T03:24:36.116Z,11.23
2022-09-23T03:27:12.899Z,11.26
2022-09-23T03:29:48.521Z,11.25
2022-09-23T03:32:21.069Z,11.21
2022-09-23T03:34:53.105Z,11.23
2022-09-23T03:37:30.163Z,11.19
2022-09-23T03:40:12.183Z,11.13
2022-09-23T03:42:42.855Z,11.23
2022-09-23T03:45:17.566Z,10.98
2022-09-23T03:47:47.730Z,11.03
2022-09-23T03:50:18.689Z,11.15
2022-09-23T03:52:50.363Z,11.15
2022-09-23T03:55:21.353Z,11.14
2022-09-23T03:57:51.185Z,11.01
2022-09-23T04:00:20.860Z,11.04
2022-09-23T04:02:50.756Z,11.16
2022-09-23T04:05:20.276Z,11.23
2022-09-23T04:07:51.111Z,11.19
2022-09-23T04:10:20.689Z,11.18
2022-09-23T04:12:50.517Z,11.19
2022-09-23T04:15:20.008Z,11.15
2022-09-23T04:17:49.729Z,11.08
2022-09-23T04:20:20.471Z,11.07
2022-09-23T04:22:50.200Z,11.03
2022-09-23T04:25:19.673Z,11.03
2022-09-23T04:27:49.516Z,11.03
2022-09-23T04:30:19.720Z,10.90
2022-09-23T04:32:49.936Z,10.98
2022-09-23T04:35:19.559Z,11.03
2022-09-23T04:37:49.577Z,10.94
2022-09-23T04:40:19.488Z,11.01
2022-09-23T04:42:50.338Z,11.03
2022-09-23T04:45:20.148Z,11.01
2022-09-23T04:47:49.901Z,11.01
2022-09-23T04:50:19.840Z,10.84
2022-09-23T04:52:49.669Z,10.97
2022-09-23T04:55:19.512Z,10.95
2022-09-23T04:57:49.403Z,10.83
2022-09-23T05:00:19.327Z,10.90
2022-09-23T05:02:50.517Z,10.90
2022-09-23T05:05:21.057Z,10.89
2022-09-23T05:07:51.690Z,11.13
2022-09-23T05:10:21.548Z,11.13
2022-09-23T05:12:56.334Z,11.13
2022-09-23T05:15:22.450Z,10.98
2022-09-23T05:17:52.196Z,11.08
2022-09-23T05:20:21.706Z,11.13
2022-09-23T05:22:53.188Z,11.13
2022-09-23T05:25:25.794Z,11.06
2022-09-23T05:27:55.555Z,11.18
2022-09-23T05:30:25.497Z,11.09
2022-09-23T05:32:55.282Z,11.09
2022-09-23T05:35:25.042Z,11.01
2022-09-23T05:37:54.802Z,10.97
2022-09-23T05:40:24.304Z,11.10
2022-09-23T05:42:53.999Z,11.03
2022-09-23T05:45:26.806Z,10.88
2022-09-23T05:47:55.852Z,11.13
2022-09-23T05:50:25.599Z,10.86
2022-09-23T05:52:55.590Z,10.99
2022-09-23T05:55:25.328Z,10.97
2022-09-23T05:57:55.089Z,11.15
2022-09-23T06:00:26.149Z,11.27
2022-09-23T06:02:55.961Z,11.47
2022-09-23T06:05:25.783Z,11.32
2022-09-23T06:07:55.598Z,11.31
2022-09-23T06:10:26.946Z,11.28
2022-09-23T06:12:56.691Z,11.45
2022-09-23T06:15:27.253Z,11.29
2022-09-23T06:17:57.130Z,11.40
2022-09-23T06:20:26.980Z,11.43
2022-09-23T06:22:58.064Z,11.30
2022-09-23T06:25:28.080Z,11.30
2022-09-23T06:27:59.184Z,11.62
2022-09-23T06:30:30.737Z,11.64
2022-09-23T06:33:01.880Z,11.64
2022-09-23T06:35:33.185Z,11.63
2022-09-23T06:38:06.596Z,11.89
2022-09-23T06:40:36.421Z,11.78
2022-09-23T06:43:06.195Z,11.60
2022-09-23T06:45:35.950Z,11.84
2022-09-23T06:48:08.444Z,12.07
2022-09-23T06:50:37.896Z,11.88
2022-09-23T06:53:07.646Z,11.93
2022-09-23T06:55:37.412Z,12.04
2022-09-23T06:58:09.079Z,11.89
2022-09-23T07:00:38.959Z,12.00
2022-09-23T07:03:10.040Z,12.17
2022-09-23T07:05:39.768Z,12.13
2022-09-23T07:08:10.337Z,12.10
2022-09-23T07:10:40.755Z,12.01
2022-09-23T07:13:15.523Z,12.20
2022-09-23T07:15:42.703Z,12.34
2022-09-23T07:18:12.995Z,12.30
2022-09-23T07:20:42.753Z,12.44
2022-09-23T07:23:12.519Z,12.29
2022-09-23T07:25:42.801Z,12.47
2022-09-23T07:28:14.152Z,12.20
2022-09-23T07:30:56.210Z,12.35
2022-09-23T07:33:29.892Z,12.35
2022-09-23T07:35:47.953Z,12.39
2022-09-23T07:38:17.779Z,12.49
2022-09-23T07:40:47.686Z,12.73
2022-09-23T07:43:19.068Z,12.72
2022-09-23T07:45:48.817Z,12.71
2022-09-23T07:48:18.421Z,12.85
2022-09-23T07:50:47.925Z,13.02
2022-09-23T07:53:17.685Z,12.88
2022-09-23T07:55:56.057Z,13.09
2022-09-23T07:58:26.653Z,13.18
2022-09-23T08:00:58.395Z,13.50
2022-09-23T08:03:28.413Z,13.50
2022-09-23T08:06:07.112Z,13.30
2022-09-23T08:08:39.640Z,13.30
2022-09-23T08:11:11.667Z,13.59
2022-09-23T08:13:42.545Z,13.60
2022-09-23T08:16:12.458Z,13.86
2022-09-23T08:18:46.957Z,14.14
2022-09-23T08:21:21.933Z,14.30
2022-09-23T08:23:51.952Z,14.52
2022-09-23T08:26:22.626Z,14.79
2022-09-23T08:28:54.537Z,14.69
2022-09-23T08:31:24.690Z,14.61
2022-09-23T08:33:59.490Z,14.94
2022-09-23T08:36:29.526Z,15.14
2022-09-23T08:38:59.603Z,15.21
2022-09-23T08:41:37.945Z,15.63
2022-09-23T08:44:25.899Z,15.64
2022-09-23T08:46:58.892Z,15.96
2022-09-23T08:49:34.221Z,15.96
2022-09-23T08:52:09.162Z,15.76
2022-09-23T08:54:38.898Z,15.99
2022-09-23T08:57:11.684Z,16.12
2022-09-23T08:59:45.797Z,15.93
2022-09-23T09:02:18.650Z,16.19
2022-09-23T09:04:53.823Z,16.46
2022-09-23T09:07:36.764Z,16.67
2022-09-23T09:10:08.290Z,16.27
2022-09-23T09:12:45.651Z,16.55
2022-09-23T09:15:24.895Z,16.74
2022-09-23T09:18:11.157Z,16.95
2022-09-23T09:20:49.882Z,17.13
2022-09-23T09:23:37.613Z,17.41
2022-09-23T09:26:11.512Z,17.41
2022-09-23T09:29:02.520Z,17.62
2022-09-23T09:31:44.207Z,17.58
2022-09-23T09:34:22.641Z,17.74
2022-09-23T09:37:07.291Z,17.71
2022-09-23T09:39:37.923Z,17.95
2022-09-23T09:42:12.958Z,17.82
2022-09-23T09:44:55.270Z,17.91
2022-09-23T09:48:00.363Z,18.11
2022-09-23T09:50:51.783Z,18.25
2022-09-23T09:53:30.242Z,18.19
2022-09-23T09:56:08.756Z,18.35
2022-09-23T09:58:50.465Z,18.51
2022-09-23T10:01:28.061Z,18.68
2022-09-23T10:04:00.922Z,18.69
2022-09-23T10:06:33.408Z,18.82
2022-09-23T10:09:12.004Z,18.92
2022-09-23T10:11:42.709Z,19.11
2022-09-23T10:14:16.863Z,19.03
2022-09-23T10:16:49.254Z,19.08
2022-09-23T10:19:25.173Z,19.50
2022-09-23T10:21:59.481Z,19.73
2022-09-23T10:24:35.572Z,19.93
2022-09-23T10:27:11.764Z,20.06
2022-09-23T10:29:43.650Z,19.99
2022-09-23T10:32:19.933Z,20.14
2022-09-23T10:34:58.438Z,20.35
2022-09-23T10:37:43.453Z,20.33
2022-09-23T10:40:53.104Z,20.48
2022-09-23T10:43:54.850Z,20.35
2022-09-23T10:46:48.401Z,20.55
2022-09-23T10:49:24.179Z,20.57
2022-09-23T10:52:16.032Z,20.25
2022-09-23T10:55:21.997Z,20.51
2022-09-23T10:58:14.172Z,20.39
2022-09-23T11:01:01.812Z,20.47
2022-09-23T11:03:57.315Z,20.49
2022-09-23T11:06:39.399Z,20.56
2022-09-23T11:09:15.082Z,20.70
2022-09-23T11:11:56.922Z,20.65
2022-09-23T11:14:45.499Z,20.65
2022-09-23T11:17:36.343Z,20.95
2022-09-23T11:20:23.052Z,20.63
2022-09-23T11:22:57.011Z,20.68
2022-09-23T11:25:32.389Z,20.74
2022-09-23T11:28:05.177Z,20.90
2022-09-23T11:30:43.682Z,20.88
2022-09-23T11:33:24.884Z,20.94
2022-09-23T11:36:00.279Z,20.91
2022-09-23T11:38:33.060Z,20.41
2022-09-23T11:41:06.224Z,20.89
2022-09-23T11:43:39.810Z,21.06
2022-09-23T11:46:23.300Z,20.97
2022-09-23T11:49:04.913Z,21.32
2022-09-23T11:51:54.849Z,21.28
2022-09-23T11:54:42.130Z,21.40
2022-09-23T11:57:17.432Z,21.54
2022-09-23T12:00:04.875Z,21.61
2022-09-23T12:02:59.222Z,21.38
2022-09-23T12:05:22.640Z,21.32
2022-09-23T12:08:04.415Z,21.42
2022-09-23T12:10:53.682Z,21.37
2022-09-23T12:13:54.807Z,21.74
2022-09-23T12:16:49.046Z,21.82
2022-09-23T12:19:24.565Z,21.62
2022-09-23T12:21:57.965Z,21.36
2022-09-23T12:24:31.320Z,21.59
2022-09-23T12:27:05.928Z,21.56
2022-09-23T12:29:37.729Z,21.40
2022-09-23T12:32:13.008Z,21.48
2022-09-23T12:34:47.078Z,21.52
2022-09-23T12:37:35.005Z,21.81
2022-09-23T12:40:30.233Z,21.75
2022-09-23T12:43:01.187Z,21.72
2022-09-23T12:45:34.920Z,21.60
2022-09-23T12:48:20.917Z,21.41
2022-09-23T12:50:55.909Z,21.12
2022-09-23T12:53:37.640Z,21.40
2022-09-23T12:56:19.694Z,21.31
2022-09-23T12:58:52.467Z,21.51
2022-09-23T13:01:25.033Z,21.21
2022-09-23T13:04:14.704Z,21.27
2022-09-23T13:07:08.135Z,21.08
2022-09-23T13:09:43.487Z,21.08
2022-09-23T13:12:21.729Z,21.12
2022-09-23T13:14:53.991Z,21.41
2022-09-23T13:17:27.156Z,21.55
2022-09-23T13:20:02.518Z,21.41
2022-09-23T13:22:53.420Z,21.18
2022-09-23T13:25:34.863Z,21.21
2022-09-23T13:28:09.362Z,21.35
2022-09-23T13:30:42.145Z,21.31
2022-09-23T13:33:27.421Z,21.20
2022-09-23T13:36:02.093Z,21.02
2022-09-23T13:38:32.961Z,20.75
2022-09-23T13:41:20.921Z,20.83
2022-09-23T13:43:53.684Z,20.92
2022-09-23T13:46:26.212Z,20.84
2022-09-23T13:48:56.778Z,20.82
2022-09-23T13:51:37.250Z,20.75
2022-09-23T13:54:09.656Z,21.00
2022-09-23T13:56:42.854Z,21.08
2022-09-23T13:59:18.520Z,20.78
2022-09-23T14:01:48.066Z,20.90
2022-09-23T14:04:27.372Z,20.79
2022-09-23T14:06:57.562Z,20.58
2022-09-23T14:09:30.033Z,20.76
2022-09-23T14:12:01.687Z,20.67
2022-09-23T14:14:32.005Z,20.67
2022-09-23T14:17:02.536Z,20.65
2022-09-23T14:19:33.868Z,20.54
2022-09-23T14:22:03.682Z,20.97
2022-09-23T14:24:39.636Z,21.12
2022-09-23T14:27:09.846Z,20.88
2022-09-23T14:29:42.761Z,20.73
2022-09-23T14:32:19.126Z,20.59
2022-09-23T14:34:54.748Z,20.56
2022-09-23T14:37:51.069Z,20.32
2022-09-23T14:40:24.613Z,20.31
2022-09-23T14:43:02.806Z,20.37
2022-09-23T14:45:35.689Z,20.21
2022-09-23T14:48:16.814Z,19.95
2022-09-23T14:50:54.472Z,20.10
2022-09-23T14:53:33.182Z,19.84
2022-09-23T14:56:11.468Z,19.93
2022-09-23T14:58:58.801Z,19.78
2022-09-23T15:01:37.341Z,19.87
2022-09-23T15:04:18.249Z,19.84
2022-09-23T15:06:56.830Z,20.02
2022-09-23T15:09:29.930Z,20.06
2022-09-23T15:12:02.833Z,19.94
2022-09-23T15:14:39.857Z,20.09
2022-09-23T15:17:33.799Z,19.75
2022-09-23T15:20:21.301Z,19.80
2022-09-23T15:22:56.593Z,19.80
2022-09-23T15:25:38.383Z,20.00
2022-09-23T15:28:15.773Z,19.65
2022-09-23T15:30:45.756Z,19.92
2022-09-23T15:33:16.120Z,19.74
2022-09-23T15:35:49.962Z,19.74
2022-09-23T15:38:19.775Z,19.80
2022-09-23T15:40:49.881Z,19.77
2022-09-23T15:43:23.150Z,19.86
2022-09-23T15:45:56.316Z,19.64
2022-09-23T15:48:35.687Z,19.68
2022-09-23T15:51:08.081Z,19.46
2022-09-23T15:53:38.192Z,19.54
2022-09-23T15:56:09.787Z,19.53
2022-09-23T15:58:39.608Z,19.25
2022-09-23T16:01:12.807Z,19.20
2022-09-23T16:03:42.510Z,19.18
2022-09-23T16:06:13.797Z,19.32
2022-09-23T16:08:43.566Z,19.23
2022-09-23T16:11:22.459Z,19.14
2022-09-23T16:13:52.364Z,19.03
2022-09-23T16:16:21.996Z,18.94
2022-09-23T16:18:51.983Z,18.79
2022-09-23T16:21:24.613Z,18.91
2022-09-23T16:23:56.442Z,18.89
2022-09-23T16:26:35.867Z,18.87
2022-09-23T16:29:05.713Z,18.88
2022-09-23T16:31:36.087Z,18.82
2022-09-23T16:34:08.387Z,18.84
2022-09-23T16:36:41.807Z,18.78
2022-09-23T16:39:14.185Z,18.78
2022-09-23T16:41:43.915Z,18.84
2022-09-23T16:44:14.339Z,18.70
2022-09-23T16:46:44.084Z,18.65
2022-09-23T16:49:13.984Z,18.75
2022-09-23T16:51:44.094Z,18.89
2022-09-23T16:54:14.471Z,18.82
2022-09-23T16:56:45.542Z,18.84
2022-09-23T16:59:16.327Z,18.60
2022-09-23T17:02:03.592Z,18.68
2022-09-23T17:04:33.745Z,18.57
2022-09-23T17:07:03.477Z,18.61
2022-09-23T17:09:33.513Z,18.54
2022-09-23T17:12:07.166Z,18.50
2022-09-23T17:14:37.099Z,18.29
2022-09-23T17:17:06.831Z,18.29
2022-09-23T17:19:38.253Z,18.22
2022-09-23T17:22:09.951Z,18.18
2022-09-23T17:24:39.673Z,18.15
2022-09-23T17:27:09.720Z,18.07
2022-09-23T17:29:39.489Z,18.07
2022-09-23T17:32:11.380Z,18.02
2022-09-23T17:34:42.781Z,17.70
2022-09-23T17:37:12.518Z,17.67
2022-09-23T17:39:42.556Z,17.67
2022-09-23T17:42:12.366Z,17.66
2022-09-23T17:44:42.272Z,17.59
2022-09-23T17:47:12.058Z,17.47
2022-09-23T17:49:43.433Z,17.40
2022-09-23T17:52:13.198Z,17.35
2022-09-23T17:54:43.040Z,17.55
2022-09-23T17:57:13.406Z,17.42
2022-09-23T17:59:43.151Z,17.42
2022-09-23T18:02:15.661Z,17.42
2022-09-23T18:04:44.474Z,17.46
2022-09-23T18:07:14.503Z,17.37
2022-09-23T18:09:44.297Z,17.35
2022-09-23T18:12:14.754Z,17.46
2022-09-23T18:14:45.276Z,17.44
2022-09-23T18:17:15.011Z,17.39
2022-09-23T18:19:46.691Z,17.34
2022-09-23T18:22:16.429Z,17.35
2022-09-23T18:24:46.167Z,17.47
2022-09-23T18:27:15.897Z,17.52
2022-09-23T18:29:45.645Z,17.61
2022-09-23T18:32:15.164Z,17.51
2022-09-23T18:34:44.954Z,17.54
2022-09-23T18:37:16.148Z,17.59
2022-09-23T18:39:46.013Z,17.45
2022-09-23T18:42:15.452Z,17.34
2022-09-23T18:44:45.634Z,17.27
2022-09-23T18:47:17.062Z,17.27
2022-09-23T18:50:04.377Z,17.27
2022-09-23T18:52:34.207Z,17.17
2022-09-23T18:55:04.034Z,17.22
2022-09-23T18:57:33.777Z,17.18
2022-09-23T19:00:04.554Z,17.05
2022-09-23T19:02:34.597Z,17.17
2022-09-23T19:05:04.055Z,17.15
2022-09-23T19:07:33.811Z,17.20
2022-09-23T19:10:03.657Z,17.20
2022-09-23T19:12:33.381Z,17.22
2022-09-23T19:15:04.585Z,17.15
2022-09-23T19:17:34.397Z,17.24
2022-09-23T19:20:07.340Z,16.93
2022-09-23T19:22:37.091Z,16.93
2022-09-23T19:25:08.709Z,17.17
2022-09-23T19:27:40.123Z,17.01
2022-09-23T19:30:12.105Z,16.85
2022-09-23T19:32:43.380Z,16.85
2022-09-23T19:35:14.805Z,16.93
2022-09-23T19:37:45.947Z,16.86
2022-09-23T19:40:16.693Z,16.83
2022-09-23T19:42:46.798Z,16.98
2022-09-23T19:45:17.196Z,16.76
2022-09-23T19:47:47.203Z,16.66
2022-09-23T19:50:16.986Z,16.59
2022-09-23T19:52:46.740Z,16.58
2022-09-23T19:55:16.561Z,16.60
2022-09-23T19:57:47.163Z,16.48
2022-09-23T20:00:17.041Z,16.48
2022-09-23T20:02:47.410Z,16.41
2022-09-23T20:05:20.285Z,16.41
2022-09-23T20:07:48.731Z,16.43
2022-09-23T20:10:18.493Z,16.43
2022-09-23T20:12:48.302Z,16.46
2022-09-23T20:15:17.960Z,16.34
2022-09-23T20:17:47.676Z,16.45
2022-09-23T20:20:17.831Z,16.55
2022-09-23T20:22:48.047Z,16.41
2022-09-23T20:25:17.866Z,16.41
2022-09-23T20:27:51.435Z,16.47
2022-09-23T20:30:21.607Z,16.51
2022-09-23T20:32:51.399Z,16.38
2022-09-23T20:35:21.368Z,16.48
2022-09-23T20:37:51.800Z,16.45
2022-09-23T20:40:22.876Z,16.43
2022-09-23T20:42:53.813Z,16.41
2022-09-23T20:45:23.570Z,16.38
2022-09-23T20:47:53.318Z,16.41
2022-09-23T20:50:23.064Z,16.48
2022-09-23T20:52:53.576Z,16.45
2022-09-23T20:55:23.029Z,16.34
2022-09-23T20:57:52.768Z,16.31
2022-09-23T21:00:22.239Z,16.33
2022-09-23T21:02:52.034Z,16.17
2022-09-23T21:05:23.176Z,16.12
2022-09-23T21:07:52.994Z,16.07
2022-09-23T21:10:22.743Z,16.16
2022-09-23T21:12:52.555Z,16.14
2022-09-23T21:15:22.901Z,16.21
2022-09-23T21:17:52.910Z,16.20
2022-09-23T21:20:22.672Z,16.18
2022-09-23T21:22:52.120Z,16.07
2022-09-23T21:25:30.146Z,16.16
2022-09-23T21:27:53.984Z,16.12
2022-09-23T21:30:23.750Z,15.92
2022-09-23T21:32:53.473Z,15.91
2022-09-23T21:35:23.573Z,15.91
2022-09-23T21:37:53.615Z,15.91
2022-09-23T21:40:40.881Z,15.82
2022-09-23T21:43:10.738Z,15.79
2022-09-23T21:45:40.492Z,15.96
2022-09-23T21:48:09.957Z,15.95
2022-09-23T21:50:40.944Z,15.98
2022-09-23T21:53:10.763Z,15.92
2022-09-23T21:55:40.510Z,16.01
2022-09-23T21:58:11.671Z,15.92
2022-09-23T22:00:41.505Z,16.05
2022-09-23T22:03:12.278Z,15.95
2022-09-23T22:05:43.931Z,15.95
2022-09-23T22:08:13.667Z,15.78
2022-09-23T22:10:43.677Z,15.59
2022-09-23T22:13:13.420Z,15.70
2022-09-23T22:15:43.784Z,15.78
2022-09-23T22:18:13.340Z,15.78
2022-09-23T22:20:43.618Z,15.72
2022-09-23T22:23:14.557Z,15.61
2022-09-23T22:25:44.601Z,15.59
2022-09-23T22:28:31.652Z,15.57
2022-09-23T22:31:19.049Z,15.69
2022-09-23T22:33:50.575Z,15.53
2022-09-23T22:36:20.173Z,15.47
2022-09-23T22:38:58.897Z,15.33
2022-09-23T22:41:25.368Z,15.26
2022-09-23T22:43:55.126Z,15.44
2022-09-23T22:46:25.166Z,15.50
2022-09-23T22:48:54.993Z,15.32
2022-09-23T22:51:24.815Z,15.09
2022-09-23T22:53:55.112Z,15.21
2022-09-23T22:56:24.664Z,15.18
2022-09-23T22:58:56.046Z,15.21
2022-09-23T23:01:26.833Z,15.13
2022-09-23T23:03:58.108Z,15.10
2022-09-23T23:06:30.237Z,15.10
2022-09-23T23:09:01.618Z,15.01
2022-09-23T23:11:31.365Z,15.02
2022-09-23T23:14:02.337Z,14.98
2022-09-23T23:16:33.872Z,15.16
2022-09-23T23:19:06.512Z,15.18
2022-09-23T23:21:37.125Z,15.10
2022-09-23T23:24:08.375Z,15.25
2022-09-23T23:26:38.098Z,15.30
2022-09-23T23:29:07.837Z,15.07
2022-09-23T23:31:37.768Z,15.08
2022-09-23T23:34:12.796Z,15.07
2022-09-23T23:36:43.581Z,14.95
2022-09-23T23:39:14.039Z,15.03
2022-09-23T23:41:43.782Z,14.96
2022-09-23T23:44:13.957Z,14.97
2022-09-23T23:46:43.797Z,15.14
2022-09-23T23:49:13.570Z,15.20
2022-09-23T23:51:43.457Z,15.13
2022-09-23T23:54:13.346Z,15.18
2022-09-23T23:56:43.590Z,15.22
2022-09-23T23:59:13.904Z,15.12
